Kenefic, Oklahoma
Current Conditions -  °F | °C
As of 1:35 PM on Thursday 23 Oct 2014 (Local Time) from KDUA Reporting Station
Broken Clouds Broken Clouds  
Wind Chill: 70°   Ceiling: 12000
Heat Index: 70°   Visibility: 10mi
Dew Point: 59°   Wind: 7mph
Humidity: 68%   Direction: 140°SE
Pressure: 30.15"   Gusts: NA
Location:  34.15°N, 96.36°W
Report Text: KDUA 231835Z AUTO 14006KT 10SM SCT080 BKN120 21/15 A3015 RMK AO2
Loading
Personal Weather Stations






























Interactive Weather Map
Tropical Storm Tracking
New forecast layout! Learn more

10-Day Weather Forecast

Advertisements
Track Severe Weather on mobile